createdAt,value
2022-10-11T00:11:06.155Z,13.60
2022-10-11T00:21:07.202Z,14.00
2022-10-11T00:26:07.615Z,14.00
2022-10-11T00:46:19.969Z,13.70
2022-10-11T00:48:58.226Z,13.70
2022-10-11T00:51:50.730Z,13.80
2022-10-11T00:54:23.738Z,13.70
2022-10-11T00:56:58.764Z,13.70
2022-10-11T00:59:31.668Z,13.60
2022-10-11T04:36:33.980Z,9.70
2022-10-11T04:48:56.794Z,9.70
2022-10-11T05:08:47.608Z,9.90
2022-10-11T05:11:17.840Z,9.50
2022-10-11T05:13:47.255Z,9.30
2022-10-11T05:21:25.876Z,9.90
2022-10-11T05:23:56.656Z,9.30
2022-10-11T05:26:27.701Z,9.40
2022-10-11T05:31:24.335Z,9.60
2022-10-11T05:33:52.361Z,9.00
2022-10-11T05:36:20.310Z,9.10
2022-10-11T05:43:45.979Z,9.00
2022-10-11T05:46:14.539Z,9.30
2022-10-11T05:51:12.411Z,9.20
2022-10-11T05:56:29.347Z,8.90
2022-10-11T06:08:56.345Z,9.60
2022-10-11T06:11:27.955Z,9.60
2022-10-11T06:13:59.299Z,9.80
2022-10-11T06:16:28.236Z,9.70
2022-10-11T06:18:58.152Z,9.70
2022-10-11T06:24:00.794Z,10.10
2022-10-11T06:26:29.366Z,9.40
2022-10-11T06:31:26.892Z,9.70
2022-10-11T06:33:54.889Z,9.50
2022-10-11T06:38:54.913Z,9.60
2022-10-11T06:41:27.264Z,9.50
2022-10-11T06:43:55.529Z,9.30
2022-10-11T06:46:26.798Z,9.80
2022-10-11T06:51:25.929Z,9.90
2022-10-11T06:53:56.879Z,10.10
2022-10-11T06:56:27.479Z,10.30
2022-10-11T06:58:57.211Z,10.20
2022-10-11T07:01:26.248Z,10.30
2022-10-11T07:03:56.104Z,10.00
2022-10-11T07:06:27.764Z,10.10
2022-10-11T07:08:56.409Z,10.50
2022-10-11T07:11:28.501Z,10.70
2022-10-11T07:14:00.612Z,10.00
2022-10-11T07:16:29.898Z,9.90
2022-10-11T07:19:01.473Z,10.40
2022-10-11T07:21:31.706Z,10.40
2022-10-11T07:26:33.861Z,10.80
2022-10-11T07:29:07.152Z,11.10
2022-10-11T07:36:32.053Z,10.40
2022-10-11T07:38:59.963Z,10.70
2022-10-11T07:41:28.048Z,10.70
2022-10-11T07:43:56.008Z,11.40
2022-10-11T07:51:24.068Z,11.70
2022-10-11T07:53:57.407Z,11.10
2022-10-11T07:56:28.396Z,11.20
2022-10-11T07:59:00.212Z,11.20
2022-10-11T08:01:29.620Z,11.30
2022-10-11T08:03:58.431Z,11.40
2022-10-11T08:06:32.619Z,11.40
2022-10-11T08:09:02.286Z,11.00
2022-10-11T08:11:37.244Z,11.70
2022-10-11T08:14:08.867Z,11.50
2022-10-11T08:16:41.187Z,11.60
2022-10-11T08:19:09.513Z,12.10
2022-10-11T08:21:37.741Z,12.10
2022-10-11T08:24:06.889Z,11.20
2022-10-11T08:26:35.924Z,11.60
2022-10-11T08:31:35.335Z,11.80
2022-10-11T08:36:31.992Z,11.70
2022-10-11T08:41:42.192Z,12.40
2022-10-11T08:45:05.477Z,12.20
2022-10-11T08:47:37.415Z,11.70
2022-10-11T08:50:08.472Z,12.20
2022-10-11T08:52:50.304Z,12.20
2022-10-11T08:55:39.794Z,12.30
2022-10-11T08:58:07.974Z,12.30
2022-10-11T09:00:38.740Z,12.70
2022-10-11T09:03:47.698Z,12.40
2022-10-11T09:06:51.314Z,12.10
2022-10-11T09:09:48.945Z,12.60
2022-10-11T09:12:32.286Z,12.40
2022-10-11T09:15:21.985Z,12.80
2022-10-11T09:18:03.624Z,12.40
2022-10-11T09:25:56.197Z,13.20
2022-10-11T09:28:48.996Z,12.90
2022-10-11T09:33:50.107Z,13.00
2022-10-11T09:36:30.975Z,13.10
2022-10-11T09:39:34.533Z,13.30
2022-10-11T09:42:13.112Z,13.30
2022-10-11T09:44:52.990Z,13.50
2022-10-11T09:47:29.630Z,13.60
2022-10-11T09:50:06.526Z,14.40
2022-10-11T09:55:04.168Z,13.90
2022-10-11T09:57:35.408Z,13.40
2022-10-11T10:00:21.784Z,13.80
2022-10-11T10:02:53.663Z,13.70
2022-10-11T10:05:28.012Z,13.70
2022-10-11T10:08:04.492Z,13.40
2022-10-11T10:10:40.284Z,13.30
2022-10-11T10:13:22.947Z,13.50
2022-10-11T10:15:58.609Z,13.50
2022-10-11T10:18:58.702Z,13.60
2022-10-11T10:21:34.103Z,13.70
2022-10-11T10:24:07.307Z,13.80
2022-10-11T10:29:10.180Z,14.00
2022-10-11T10:32:12.912Z,14.00
2022-10-11T10:34:39.057Z,14.00
2022-10-11T10:37:15.828Z,13.50
2022-10-11T10:39:55.355Z,14.00
2022-10-11T10:44:57.016Z,14.10
2022-10-11T10:47:50.744Z,14.00
2022-10-11T10:50:39.478Z,14.00
2022-10-11T10:53:52.475Z,14.00
2022-10-11T10:56:41.646Z,14.10
2022-10-11T10:59:37.672Z,13.90
2022-10-11T11:02:40.890Z,13.60
2022-10-11T11:05:33.396Z,13.80
2022-10-11T11:08:32.419Z,13.80
2022-10-11T11:11:50.998Z,13.70
2022-10-11T11:14:39.983Z,14.10
2022-10-11T11:17:26.614Z,13.70
2022-10-11T11:20:37.377Z,13.60
2022-10-11T11:23:34.023Z,13.60
2022-10-11T11:26:24.689Z,13.60
2022-10-11T11:32:12.467Z,14.00
2022-10-11T11:34:49.123Z,13.50
2022-10-11T11:40:19.911Z,13.70
2022-10-11T11:42:51.521Z,14.00
2022-10-11T11:45:47.045Z,14.20
2022-10-11T11:48:25.655Z,14.50
2022-10-11T11:51:15.082Z,14.60
2022-10-11T11:54:17.664Z,15.20
2022-10-11T11:57:13.825Z,14.80
2022-10-11T12:00:01.255Z,15.00
2022-10-11T12:02:51.733Z,15.30
2022-10-11T12:05:25.328Z,14.40
2022-10-11T12:08:02.271Z,14.90
2022-10-11T12:10:55.966Z,15.00
2022-10-11T12:13:40.802Z,15.10
2022-10-11T12:16:13.787Z,15.00
2022-10-11T12:19:14.338Z,14.70
2022-10-11T12:21:45.776Z,15.00
2022-10-11T12:24:25.318Z,14.90
2022-10-11T12:26:58.962Z,15.50
2022-10-11T12:29:50.495Z,15.10
2022-10-11T12:32:36.998Z,15.00
2022-10-11T12:35:33.404Z,15.00
2022-10-11T12:38:21.347Z,15.00
2022-10-11T12:40:54.340Z,15.20
2022-10-11T12:43:50.185Z,15.20
2022-10-11T12:46:31.101Z,15.10
2022-10-11T12:49:38.275Z,15.10
2022-10-11T12:52:34.977Z,15.10
2022-10-11T12:55:27.942Z,15.00
2022-10-11T12:58:26.179Z,15.00
2022-10-11T13:03:41.338Z,15.10
2022-10-11T13:06:13.647Z,14.90
2022-10-11T13:08:46.859Z,15.00
2022-10-11T13:11:26.376Z,15.10
2022-10-11T13:13:58.143Z,15.10
2022-10-11T13:16:31.759Z,15.10
2022-10-11T13:19:01.250Z,15.00
2022-10-11T13:28:10.253Z,15.00
2022-10-11T13:30:39.996Z,15.00
2022-10-11T13:33:23.608Z,15.10
2022-10-11T13:35:53.168Z,15.10
2022-10-11T13:38:31.006Z,15.00
2022-10-11T13:41:02.733Z,15.10
2022-10-11T13:43:32.243Z,15.00
2022-10-11T13:46:02.860Z,15.10
2022-10-11T13:51:30.644Z,15.10
2022-10-11T13:54:13.613Z,15.20
2022-10-11T13:56:52.261Z,15.50
2022-10-11T13:59:27.410Z,15.50
2022-10-11T14:02:04.515Z,15.50
2022-10-11T14:04:41.367Z,15.60
2022-10-11T14:07:39.678Z,15.60
2022-10-11T14:12:46.672Z,15.60
2022-10-11T14:15:32.099Z,15.60
2022-10-11T14:18:01.489Z,15.50
2022-10-11T14:20:44.279Z,15.50
2022-10-11T14:28:13.965Z,15.50
2022-10-11T14:30:45.160Z,15.40
2022-10-11T14:35:43.304Z,15.50
2022-10-11T14:38:13.173Z,15.40
2022-10-11T14:45:38.954Z,15.20
2022-10-11T14:50:49.103Z,15.50
2022-10-11T14:58:16.976Z,15.10
2022-10-11T15:10:42.545Z,14.80
2022-10-11T15:15:42.130Z,14.70
2022-10-11T15:18:16.716Z,14.60
2022-10-11T15:20:47.750Z,14.50
2022-10-11T15:28:28.127Z,14.50
2022-10-11T15:30:57.319Z,14.30
2022-10-11T15:38:26.100Z,14.20
2022-10-11T15:48:27.474Z,14.00
2022-10-11T15:50:56.000Z,14.00
2022-10-11T15:53:38.421Z,13.70
2022-10-11T15:56:10.386Z,14.00
2022-10-11T15:58:44.578Z,13.90
2022-10-11T16:01:20.203Z,13.90
2022-10-11T16:03:50.847Z,13.80
2022-10-11T16:06:21.014Z,13.90
2022-10-11T16:21:15.598Z,13.60
2022-10-11T16:26:16.384Z,13.40
2022-10-11T16:28:47.629Z,13.40
2022-10-11T16:31:20.804Z,13.30
2022-10-11T16:36:42.477Z,13.20
2022-10-11T16:39:18.181Z,12.90
2022-10-11T16:44:17.795Z,12.90
2022-10-11T16:46:48.280Z,12.80
2022-10-11T16:49:19.190Z,12.80
2022-10-11T16:56:50.555Z,12.50
2022-10-11T16:59:26.711Z,12.50
2022-10-11T17:15:22.169Z,12.10
2022-10-11T17:18:08.900Z,12.10
2022-10-11T17:20:54.455Z,12.00
2022-10-11T17:26:40.368Z,11.80
2022-10-11T17:29:22.178Z,11.70
2022-10-11T17:34:32.613Z,11.60
2022-10-11T17:49:28.082Z,11.40
2022-10-11T17:54:26.304Z,11.30
2022-10-11T18:04:54.919Z,11.10
2022-10-11T18:12:22.945Z,10.90
2022-10-11T18:17:23.282Z,11.00
2022-10-11T18:32:21.132Z,10.70
2022-10-11T18:45:01.909Z,10.80
2022-10-11T18:50:28.259Z,10.70
2022-10-11T18:53:34.340Z,10.70
2022-10-11T18:56:08.604Z,10.70
2022-10-11T18:58:42.162Z,10.60
2022-10-11T19:03:57.588Z,10.50
2022-10-11T19:06:33.311Z,10.40
2022-10-11T19:09:10.272Z,10.40
2022-10-11T19:14:11.724Z,10.30
2022-10-11T19:16:45.335Z,10.40
2022-10-11T19:19:22.120Z,10.40
2022-10-11T19:21:56.876Z,10.40
2022-10-11T19:24:34.400Z,10.30
2022-10-11T19:27:17.228Z,10.30
2022-10-11T19:30:01.994Z,10.30
2022-10-11T20:29:42.718Z,9.90
2022-10-11T20:54:34.206Z,9.50
2022-10-11T22:34:16.339Z,8.80
2022-10-11T22:54:58.595Z,9.50
2022-10-11T23:02:25.575Z,9.00
2022-10-11T23:04:54.004Z,8.70
2022-10-11T23:12:18.898Z,8.70
2022-10-11T23:32:12.424Z,8.50
